Delta Virtual Airport Information Service

Bozeman Yellowstone International Airport

ICAO: KBZN Country: United States
Latitude: 45.7775 Longitude: -111.152
Latest Arrival : SKW3454 (A) (KSEA-KBZN) Latest Departure : CPZ5705 (B) (KBZN-KSEA)


WX CaptureLIVE
Data provided by noaa.gov | Fetched at 14:53:39

METAR : KBZN 291856Z 29006KT 10SM CLR 22/01 A3027 RMK AO2 SLP235 T02170011

TAF : KBZN 291720Z 2918/3024 VRB03KT P6SM SKC FM292200 28008G15KT P6SM SKC FM300400 VRB03KT P6SM SKC


Runway Data for KBZN
Data provided by openaviationdata.com

Runway ID Mag Var Hdg Length Elevation Surface ILS Freq ILS Id ILS Slope
3 15 30° 2647 ft 4470 ft Asphalt -- -- --
11 15 120° 3194 ft 4470 ft Grass -- -- --
12 15 120° 8992 ft 4470 ft Asphalt 109.3 IBZN 3
21 15 210° 2647 ft 4470 ft Asphalt -- -- --
29 15 300° 3194 ft 4470 ft Grass -- -- --
30 15 300° 8992 ft 4470 ft Asphalt -- -- --

Bozeman Yellowstone International Airport, United States
Use only for reference purposes



Not for navigational purposes.